Time;durP1;ratioP1;P1;durP2;ratioP2;P2;SDS_P1;SDS_P2;PMS_P1;PMS_P2;Temp;Humidity;BMP_temperature;BMP_pressure;BME280_temperature;BME280_humidity;BME280_pressure;Samples;Min_cycle;Max_cycle;Signal;HPM_P1;HPM_P2
2023/01/21 00:01:36;;;;;;;22.45;13.10;;;;;;;2.36;100.00;94070.03;4999644;28;20252;-75
2023/01/21 00:04:02;;;;;;;21.55;13.38;;;;;;;2.29;100.00;94069.63;4992497;28;20205;-76
2023/01/21 00:06:29;;;;;;;21.42;13.93;;;;;;;2.21;100.00;94071.06;5005034;28;20719;-75
2023/01/21 00:08:58;;;;;;;21.23;13.65;;;;;;;2.17;100.00;94075.41;5004610;28;20730;-75
2023/01/21 00:11:26;;;;;;;22.27;14.07;;;;;;;2.20;100.00;94076.69;4999802;28;20228;-75
2023/01/21 00:13:53;;;;;;;21.85;14.10;;;;;;;2.07;100.00;94075.53;5004919;28;20332;-75
2023/01/21 00:16:20;;;;;;;22.60;14.27;;;;;;;2.06;100.00;94085.41;4998413;28;20243;-76
2023/01/21 00:18:47;;;;;;;26.23;15.48;;;;;;;2.08;100.00;94072.56;4998891;28;20275;-75
2023/01/21 00:21:14;;;;;;;19.73;11.52;;;;;;;2.04;100.00;94087.59;5003134;28;20293;-75
2023/01/21 00:23:40;;;;;;;28.33;14.48;;;;;;;2.04;100.00;94076.91;5004919;28;20247;-75
2023/01/21 00:26:10;;;;;;;23.38;13.90;;;;;;;1.96;100.00;94068.75;4998840;28;20274;-75
2023/01/21 00:28:40;;;;;;;24.90;14.95;;;;;;;2.04;100.00;94062.78;5011196;28;20303;-75
2023/01/21 00:31:08;;;;;;;24.85;14.70;;;;;;;1.94;100.00;94061.00;5006920;28;20799;-75
2023/01/21 00:33:35;;;;;;;22.15;14.02;;;;;;;1.92;100.00;94073.84;4998003;28;20665;-75
2023/01/21 00:36:04;;;;;;;20.92;12.93;;;;;;;1.94;100.00;94093.06;5003462;28;20237;-74
2023/01/21 00:38:31;;;;;;;19.85;12.32;;;;;;;1.95;100.00;94083.97;5004399;28;20205;-74
2023/01/21 00:41:03;;;;;;;18.55;11.63;;;;;;;1.88;100.00;94077.41;5001361;28;20202;-75
2023/01/21 00:43:30;;;;;;;19.73;12.82;;;;;;;1.81;100.00;94077.75;4994714;28;20677;-75
2023/01/21 00:45:58;;;;;;;22.45;13.63;;;;;;;1.87;100.00;94065.94;5000810;28;20287;-75
2023/01/21 00:48:27;;;;;;;22.30;13.68;;;;;;;2.06;100.00;94071.25;4989918;28;20225;-74
2023/01/21 00:50:54;;;;;;;17.77;11.43;;;;;;;1.96;100.00;94072.22;5000218;28;20233;-75
2023/01/21 00:53:21;;;;;;;22.55;14.32;;;;;;;1.89;100.00;94068.31;4997758;28;20205;-75
2023/01/21 00:55:48;;;;;;;23.33;14.05;;;;;;;2.01;100.00;94048.13;4998738;28;20248;-74
2023/01/21 00:58:15;;;;;;;22.42;13.50;;;;;;;2.15;100.00;94048.19;4999712;28;20213;-74
2023/01/21 01:00:41;;;;;;;20.60;12.48;;;;;;;2.25;100.00;94066.72;5001336;28;20229;-74
2023/01/21 01:03:10;;;;;;;21.77;12.23;;;;;;;2.33;100.00;94062.59;5004274;28;20206;-74
2023/01/21 01:05:37;;;;;;;20.88;12.55;;;;;;;2.34;100.00;94081.03;5002863;28;20236;-74
2023/01/21 01:08:03;;;;;;;23.45;13.25;;;;;;;2.44;100.00;94074.75;4996759;28;20646;-75
2023/01/21 01:10:30;;;;;;;19.05;11.65;;;;;;;2.15;100.00;94058.88;5008818;28;20504;-74
2023/01/21 01:12:57;;;;;;;18.60;11.70;;;;;;;2.20;100.00;94064.13;4996867;28;20243;-74
2023/01/21 01:15:23;;;;;;;12.45;6.47;;;;;;;2.18;100.00;94065.53;5010200;28;20237;-74
2023/01/21 01:17:50;;;;;;;8.63;5.32;;;;;;;2.14;100.00;94058.06;5009891;28;20212;-74
2023/01/21 01:20:19;;;;;;;8.52;4.82;;;;;;;2.31;100.00;94054.91;5004161;28;20202;-73
2023/01/21 01:22:45;;;;;;;9.32;4.32;;;;;;;2.39;100.00;94061.47;4997418;28;20647;-75
2023/01/21 01:25:12;;;;;;;6.00;3.63;;;;;;;2.35;100.00;94052.41;5010146;28;20216;-74
2023/01/21 01:27:39;;;;;;;6.13;3.08;;;;;;;2.21;100.00;94052.34;5010474;28;20205;-74
2023/01/21 01:30:07;;;;;;;9.68;4.60;;;;;;;2.33;100.00;94051.91;5007815;28;20194;-74
2023/01/21 01:32:34;;;;;;;7.50;4.78;;;;;;;2.17;100.00;94064.72;4997751;28;20259;-73
2023/01/21 01:35:01;;;;;;;6.60;4.38;;;;;;;2.20;100.00;94047.28;4996240;28;20720;-74
2023/01/21 01:37:29;;;;;;;10.77;5.20;;;;;;;2.25;100.00;94055.25;5001869;28;20202;-74
2023/01/21 01:39:56;;;;;;;9.75;4.85;;;;;;;2.18;100.00;94044.94;5002088;28;20197;-73
2023/01/21 01:42:22;;;;;;;12.07;5.53;;;;;;;2.12;100.00;94030.84;4998597;28;20209;-74
2023/01/21 01:45:00;;;;;;;18.95;6.03;;;;;;;2.24;100.00;94038.44;5007408;28;20201;-74
2023/01/21 01:47:32;;;;;;;11.45;6.43;;;;;;;2.28;100.00;94035.97;4999486;28;20270;-75
2023/01/21 01:50:01;;;;;;;8.82;4.95;;;;;;;2.05;100.00;94009.03;4994304;28;20197;-74
2023/01/21 01:52:30;;;;;;;8.70;5.00;;;;;;;2.07;100.00;94011.44;4999599;28;20201;-74
2023/01/21 01:55:00;;;;;;;12.80;6.15;;;;;;;2.29;100.00;94011.63;5003092;28;20222;-74
2023/01/21 01:57:32;;;;;;;13.80;7.07;;;;;;;2.24;100.00;94021.59;4993462;28;20704;-74
2023/01/21 02:00:02;;;;;;;10.75;5.93;;;;;;;2.03;100.00;94002.44;5004219;28;20244;-74
2023/01/21 02:02:29;;;;;;;9.05;4.45;;;;;;;1.99;100.00;93998.72;5003005;28;20207;-75
2023/01/21 02:05:00;;;;;;;12.30;5.28;;;;;;;2.04;100.00;94006.69;4989861;28;20268;-75
2023/01/21 02:07:37;;;;;;;18.05;11.77;;;;;;;2.08;100.00;94000.44;5002582;28;20251;-74
2023/01/21 02:10:06;;;;;;;18.55;10.80;;;;;;;2.17;100.00;94015.84;4996791;28;20235;-74
2023/01/21 02:12:33;;;;;;;18.75;12.05;;;;;;;2.01;100.00;93994.69;5009249;28;20205;-75
2023/01/21 02:15:00;;;;;;;8.73;4.32;;;;;;;1.99;100.00;94004.88;5008870;28;20224;-74
2023/01/21 02:17:38;;;;;;;8.55;5.65;;;;;;;1.98;100.00;93975.78;4996201;28;20197;-75
2023/01/21 02:20:41;;;;;;;7.50;4.53;;;;;;;1.95;100.00;93982.50;4999133;28;20201;-74
2023/01/21 02:23:16;;;;;;;18.42;11.00;;;;;;;2.04;100.00;93980.78;4998916;28;20846;-74
2023/01/21 02:26:11;;;;;;;20.05;11.15;;;;;;;1.97;100.00;93969.66;5004263;28;20671;-74
2023/01/21 02:29:10;;;;;;;19.95;12.10;;;;;;;2.12;100.00;93961.41;4968130;28;20213;-74
2023/01/21 02:31:58;;;;;;;19.35;11.88;;;;;;;2.41;100.00;93963.88;4978689;28;20665;-75
2023/01/21 02:34:31;;;;;;;16.17;10.52;;;;;;;2.43;100.00;93963.59;4996442;28;20252;-75
2023/01/21 02:37:07;;;;;;;7.45;3.60;;;;;;;2.35;100.00;93958.91;4992220;28;20292;-73
2023/01/21 02:39:54;;;;;;;8.32;4.00;;;;;;;2.35;100.00;93948.22;4999172;28;20204;-75
2023/01/21 02:42:29;;;;;;;7.30;4.68;;;;;;;2.11;100.00;93949.13;4996160;28;20267;-74
2023/01/21 02:45:04;;;;;;;9.45;4.80;;;;;;;2.14;100.00;93956.56;4995519;28;20296;-74
2023/01/21 02:47:38;;;;;;;7.43;3.90;;;;;;;2.03;100.00;93971.16;5008939;28;20228;-75
2023/01/21 02:50:12;;;;;;;6.35;3.45;;;;;;;2.15;100.00;93952.03;5006512;28;20205;-74
2023/01/21 02:52:39;;;;;;;9.40;4.38;;;;;;;2.06;100.00;93951.88;4996203;28;20621;-75
2023/01/21 02:55:12;;;;;;;9.63;4.85;;;;;;;2.06;100.00;93951.88;5001659;28;20208;-73
2023/01/21 02:57:54;;;;;;;8.15;4.18;;;;;;;1.99;100.00;93948.00;4992103;28;20197;-74
2023/01/21 03:00:26;;;;;;;8.13;5.00;;;;;;;2.03;100.00;93952.47;5004993;28;20189;-75
2023/01/21 03:03:14;;;;;;;6.38;4.25;;;;;;;2.08;100.00;93935.56;4994995;28;20205;-74
2023/01/21 03:06:18;;;;;;;8.75;5.20;;;;;;;1.99;100.00;93930.09;4995691;28;20256;-74
2023/01/21 03:08:52;;;;;;;7.18;3.97;;;;;;;2.04;100.00;93930.03;5000127;28;20245;-74
2023/01/21 03:11:21;;;;;;;8.13;4.38;;;;;;;2.02;100.00;93929.53;5000889;28;20198;-74
2023/01/21 03:16:58;;;;;;;6.25;3.58;;;;;;;2.04;100.00;93931.91;4997167;28;20236;-73
2023/01/21 03:19:32;;;;;;;6.20;3.47;;;;;;;1.80;100.00;93918.63;4994451;28;20205;-74
2023/01/21 03:22:03;;;;;;;5.72;3.33;;;;;;;1.78;100.00;93918.13;5006594;28;20250;-74
2023/01/21 03:24:32;;;;;;;12.80;5.07;;;;;;;1.75;100.00;93921.41;4996017;28;20208;-74
2023/01/21 03:27:00;;;;;;;8.25;5.30;;;;;;;1.69;100.00;93909.19;5007136;28;20255;-74
2023/01/21 03:29:30;;;;;;;6.40;3.97;;;;;;;1.58;100.00;93905.09;4995773;28;20197;-75
2023/01/21 03:32:03;;;;;;;8.90;4.25;;;;;;;1.58;100.00;93908.56;4991904;28;20911;-74
2023/01/21 03:34:35;;;;;;;6.90;3.90;;;;;;;1.49;100.00;93904.16;4988315;28;20202;-74
2023/01/21 03:37:08;;;;;;;8.15;4.53;;;;;;;1.53;100.00;93895.28;4999798;28;20296;-74
2023/01/21 03:39:42;;;;;;;9.32;4.78;;;;;;;1.61;100.00;93899.19;4997807;28;20292;-75
2023/01/21 03:42:10;;;;;;;9.25;4.15;;;;;;;1.62;100.00;93884.75;5002128;28;20811;-75
2023/01/21 03:44:37;;;;;;;5.63;3.28;;;;;;;1.76;100.00;93890.94;4988953;28;20268;-74
2023/01/21 03:47:16;;;;;;;6.95;3.65;;;;;;;1.57;100.00;93900.84;5001238;28;20232;-75
2023/01/21 03:49:48;;;;;;;7.68;3.45;;;;;;;1.46;100.00;93883.38;4989139;28;20205;-75
2023/01/21 03:52:18;;;;;;;6.60;4.32;;;;;;;1.40;100.00;93878.13;4997028;28;20208;-75
2023/01/21 03:54:47;;;;;;;8.70;4.50;;;;;;;1.37;100.00;93880.56;5007778;28;20688;-75
2023/01/21 03:57:14;;;;;;;4.70;3.30;;;;;;;1.33;100.00;93885.69;5006888;28;20244;-75
2023/01/21 03:59:41;;;;;;;7.15;3.70;;;;;;;1.29;100.00;93874.00;5003834;28;20276;-75
2023/01/21 04:02:07;;;;;;;6.82;3.42;;;;;;;1.33;100.00;93875.03;4998775;28;20197;-74
2023/01/21 04:04:34;;;;;;;5.28;2.65;;;;;;;1.40;100.00;93880.78;4993984;28;20201;-75
2023/01/21 04:07:01;;;;;;;10.20;4.72;;;;;;;1.31;100.00;93876.38;4996624;28;20252;-74
2023/01/21 04:09:29;;;;;;;16.02;10.05;;;;;;;1.33;100.00;93891.03;5003857;28;20259;-74
2023/01/21 04:11:56;;;;;;;16.50;10.25;;;;;;;1.43;100.00;93890.88;5000134;28;20248;-74
2023/01/21 04:14:23;;;;;;;18.60;11.82;;;;;;;1.56;100.00;93875.22;5003183;28;20201;-74
2023/01/21 04:16:50;;;;;;;16.08;9.68;;;;;;;1.68;100.00;93865.69;4998023;28;20751;-74
2023/01/21 04:19:16;;;;;;;15.90;9.73;;;;;;;1.70;100.00;93857.41;5003293;28;20232;-74
2023/01/21 04:21:43;;;;;;;13.48;9.20;;;;;;;1.68;100.00;93838.19;4992792;28;20205;-76
2023/01/21 04:24:10;;;;;;;16.67;10.55;;;;;;;1.71;100.00;93834.97;5005434;28;20743;-75
2023/01/21 04:26:38;;;;;;;13.07;8.45;;;;;;;1.89;100.00;93844.03;4995839;28;20201;-75
2023/01/21 04:29:05;;;;;;;14.75;8.57;;;;;;;1.98;100.00;93861.75;5001379;28;20202;-73
2023/01/21 04:31:31;;;;;;;11.60;7.93;;;;;;;1.98;100.00;93868.97;4999896;28;20314;-74
2023/01/21 04:33:58;;;;;;;12.50;7.97;;;;;;;1.99;100.00;93871.34;5002118;28;20256;-74
2023/01/21 04:36:25;;;;;;;8.63;4.40;;;;;;;1.94;100.00;93874.09;4999428;28;20233;-73
2023/01/21 04:38:52;;;;;;;10.52;4.20;;;;;;;2.09;100.00;93881.84;5007560;28;20201;-74
2023/01/21 04:41:18;;;;;;;7.45;4.05;;;;;;;2.21;100.00;93877.91;5007070;28;20224;-74
2023/01/21 04:43:47;;;;;;;5.95;3.33;;;;;;;2.25;100.00;93877.03;5006884;28;20209;-75
2023/01/21 04:46:13;;;;;;;5.32;3.22;;;;;;;2.32;100.00;93890.03;4994741;28;20206;-74
2023/01/21 04:48:40;;;;;;;8.98;4.25;;;;;;;2.18;100.00;93897.22;5002024;28;20237;-74
2023/01/21 04:51:07;;;;;;;8.07;3.97;;;;;;;2.02;100.00;93908.16;4996242;28;20205;-74
2023/01/21 04:53:34;;;;;;;7.22;3.60;;;;;;;2.18;100.00;93899.91;4997347;28;20693;-74
2023/01/21 04:56:00;;;;;;;11.50;4.88;;;;;;;2.13;100.00;93909.56;4997437;28;20724;-74
2023/01/21 04:58:27;;;;;;;2.90;1.67;;;;;;;2.26;100.00;93905.34;5010701;28;20251;-74
2023/01/21 05:00:56;;;;;;;6.35;3.13;;;;;;;2.38;100.00;93905.66;5006229;28;20209;-74
2023/01/21 05:03:22;;;;;;;6.40;2.88;;;;;;;2.57;100.00;93892.25;4998553;28;21122;-74
2023/01/21 05:05:49;;;;;;;2.97;1.98;;;;;;;2.75;99.26;93894.03;4997516;28;20258;-74
2023/01/21 05:08:16;;;;;;;3.72;2.72;;;;;;;2.78;98.73;93896.09;5002881;28;20248;-75
2023/01/21 05:10:42;;;;;;;3.60;2.17;;;;;;;2.82;98.07;93899.78;5001719;28;20276;-74
2023/01/21 05:13:09;;;;;;;3.53;2.75;;;;;;;2.91;99.10;93917.81;5010504;28;20260;-75
2023/01/21 05:15:36;;;;;;;5.10;3.10;;;;;;;2.83;99.27;93928.13;4997086;28;20657;-75
2023/01/21 05:18:04;;;;;;;7.50;4.60;;;;;;;2.48;100.00;93939.44;5010101;28;20209;-74
2023/01/21 05:20:31;;;;;;;10.05;4.88;;;;;;;2.31;100.00;93936.53;5003792;28;20355;-75
2023/01/21 05:22:58;;;;;;;8.38;5.10;;;;;;;2.31;100.00;93947.22;5002816;28;20202;-75
2023/01/21 05:25:24;;;;;;;8.57;4.25;;;;;;;2.25;100.00;93935.81;5005145;28;20205;-75
2023/01/21 05:27:52;;;;;;;10.30;4.95;;;;;;;2.13;100.00;93920.25;5010219;28;20286;-75
2023/01/21 05:30:20;;;;;;;13.38;6.70;;;;;;;2.28;100.00;93937.13;5006682;28;20193;-74
2023/01/21 05:32:50;;;;;;;9.88;5.93;;;;;;;2.10;100.00;93952.88;4999415;28;20204;-75
2023/01/21 05:35:19;;;;;;;11.10;5.35;;;;;;;2.20;100.00;93957.25;4997195;28;20206;-75
2023/01/21 05:37:46;;;;;;;15.23;5.68;;;;;;;2.16;100.00;93948.28;5000385;28;20242;-75
2023/01/21 05:40:14;;;;;;;12.27;5.30;;;;;;;2.27;100.00;93935.53;5003170;28;20197;-74
2023/01/21 05:42:41;;;;;;;11.40;5.63;;;;;;;2.13;100.00;93943.50;5006171;28;20194;-75
2023/01/21 05:45:09;;;;;;;9.68;5.10;;;;;;;2.17;100.00;93952.53;4999492;28;20204;-75
2023/01/21 05:47:36;;;;;;;11.63;6.18;;;;;;;2.09;100.00;93951.28;5001019;28;20221;-76
2023/01/21 05:50:03;;;;;;;9.23;5.72;;;;;;;1.99;100.00;93972.81;4997612;28;20201;-75
2023/01/21 05:52:31;;;;;;;14.00;6.80;;;;;;;1.94;100.00;93975.56;5001005;28;20198;-75
2023/01/21 05:54:58;;;;;;;13.82;6.43;;;;;;;2.01;100.00;93975.22;4997240;28;20665;-75
2023/01/21 05:57:27;;;;;;;11.10;6.30;;;;;;;4.05;100.00;93957.69;5000244;28;20233;-76
2023/01/21 05:59:54;;;;;;;14.23;6.57;;;;;;;5.88;100.00;93958.25;4999032;28;20204;-76
2023/01/21 06:02:21;;;;;;;15.77;7.85;;;;;;;4.45;100.00;93949.78;4997380;28;20678;-74
2023/01/21 06:04:48;;;;;;;15.65;7.60;;;;;;;3.83;100.00;93949.59;4996233;28;20334;-74
2023/01/21 06:07:15;;;;;;;16.58;7.28;;;;;;;3.10;100.00;93961.31;4999915;28;20197;-74
2023/01/21 06:09:43;;;;;;;16.38;8.18;;;;;;;2.87;100.00;93951.59;4999660;28;20205;-75
2023/01/21 06:12:09;;;;;;;11.30;6.80;;;;;;;2.74;100.00;93951.25;5000315;28;20251;-74
2023/01/21 06:14:36;;;;;;;13.48;6.85;;;;;;;2.61;100.00;93952.03;5001040;28;20206;-74
2023/01/21 06:17:03;;;;;;;11.32;6.65;;;;;;;2.55;100.00;93953.22;5000994;28;20503;-74
2023/01/21 06:19:30;;;;;;;12.30;6.82;;;;;;;2.48;100.00;93955.47;4998792;28;20205;-75
2023/01/21 06:21:56;;;;;;;12.35;7.03;;;;;;;2.22;100.00;93968.44;4997153;28;20198;-75
2023/01/21 06:24:23;;;;;;;12.38;6.38;;;;;;;2.18;100.00;93964.00;4999215;28;20193;-74
2023/01/21 06:26:52;;;;;;;15.85;8.07;;;;;;;2.22;100.00;93959.66;5001730;28;20208;-75
2023/01/21 06:29:19;;;;;;;22.30;8.98;;;;;;;2.30;100.00;93970.47;4994563;28;20248;-75
2023/01/21 06:31:45;;;;;;;32.53;10.48;;;;;;;2.03;100.00;93973.03;4999959;28;20833;-75
2023/01/21 06:34:12;;;;;;;12.65;6.35;;;;;;;1.83;100.00;93976.78;4994409;28;20201;-75
2023/01/21 06:36:41;;;;;;;8.55;5.28;;;;;;;1.75;100.00;93982.78;5002422;28;20226;-76
2023/01/21 06:39:09;;;;;;;13.52;6.70;;;;;;;1.66;100.00;93985.28;4997687;28;20302;-76
2023/01/21 06:41:36;;;;;;;16.38;7.55;;;;;;;1.73;100.00;93990.28;4998443;28;20197;-75
2023/01/21 06:44:05;;;;;;;11.23;5.93;;;;;;;1.76;100.00;93973.69;4998625;28;20204;-74
2023/01/21 06:46:32;;;;;;;23.85;5.72;;;;;;;1.83;100.00;93968.78;4999096;28;20202;-75
2023/01/21 06:48:58;;;;;;;21.58;13.52;;;;;;;1.88;100.00;93966.06;4997860;28;20661;-76
2023/01/21 06:51:25;;;;;;;23.70;13.52;;;;;;;2.09;100.00;93986.00;4997730;28;20202;-75
2023/01/21 06:53:52;;;;;;;23.95;13.65;;;;;;;2.20;100.00;93973.28;4997431;28;20201;-75
2023/01/21 06:56:19;;;;;;;22.77;13.35;;;;;;;2.48;100.00;93990.22;4998339;28;21002;-76
2023/01/21 06:58:46;;;;;;;24.38;14.48;;;;;;;2.56;100.00;94000.25;5005885;28;20193;-76
2023/01/21 07:01:15;;;;;;;29.95;17.73;;;;;;;2.60;100.00;94017.28;4995010;28;20209;-76
2023/01/21 07:03:43;;;;;;;15.70;7.32;;;;;;;2.61;100.00;94012.72;4999338;28;20251;-76
2023/01/21 07:06:09;;;;;;;15.70;8.00;;;;;;;2.81;100.00;94015.06;4996066;28;20197;-75
2023/01/21 07:08:36;;;;;;;16.83;7.75;;;;;;;2.75;100.00;94000.97;4999483;28;20201;-77
2023/01/21 07:11:03;;;;;;;13.50;8.10;;;;;;;3.08;100.00;93992.91;5002200;28;20201;-76
2023/01/21 07:13:30;;;;;;;18.90;8.40;;;;;;;3.06;99.47;94000.44;4999795;28;20201;-77
2023/01/21 07:15:59;;;;;;;11.23;7.03;;;;;;;2.90;99.47;93996.44;5003594;28;20540;-77
2023/01/21 07:18:28;;;;;;;6.82;4.32;;;;;;;3.01;98.52;93987.94;5008891;28;20234;-78
2023/01/21 07:20:55;;;;;;;4.88;3.00;;;;;;;3.15;97.81;93999.44;5000243;28;20632;-77
2023/01/21 07:23:22;;;;;;;8.52;4.78;;;;;;;3.34;97.71;93999.38;4998423;28;20244;-78
2023/01/21 07:25:49;;;;;;;15.13;4.10;;;;;;;3.50;95.49;93999.88;5001842;28;20263;-78
2023/01/21 07:28:16;;;;;;;5.95;3.83;;;;;;;3.62;95.52;93999.34;4995880;28;20198;-77
2023/01/21 07:30:43;;;;;;;6.47;3.40;;;;;;;3.78;94.10;93996.06;4990160;28;20193;-81
2023/01/21 07:33:10;;;;;;;3.45;2.03;;;;;;;4.04;93.46;93996.31;5002986;28;20734;-74
2023/01/21 07:35:38;;;;;;;6.47;2.90;;;;;;;4.07;92.14;93987.66;5004310;28;20656;-76
2023/01/21 07:38:05;;;;;;;3.03;1.98;;;;;;;4.15;91.52;93992.28;4998289;28;20279;-75
2023/01/21 07:40:31;;;;;;;9.82;4.72;;;;;;;4.12;91.24;93984.84;4996181;28;20194;-76
2023/01/21 07:42:58;;;;;;;5.85;1.83;;;;;;;4.29;90.36;93982.31;5004972;28;20205;-76
2023/01/21 07:45:25;;;;;;;2.50;1.23;;;;;;;4.39;90.44;93972.44;5003913;28;20669;-74
2023/01/21 07:47:52;;;;;;;5.20;1.60;;;;;;;4.56;89.90;93968.00;5003874;28;20217;-76
2023/01/21 07:50:19;;;;;;;2.20;1.63;;;;;;;4.75;88.43;93973.19;4997930;28;20267;-76
2023/01/21 07:52:47;;;;;;;2.20;1.27;;;;;;;4.92;87.61;93986.66;5001011;28;20550;-76
2023/01/21 07:55:13;;;;;;;2.63;1.80;;;;;;;5.03;86.72;93986.41;4996357;28;20259;-75
2023/01/21 07:57:40;;;;;;;2.25;1.73;;;;;;;5.10;86.36;93973.34;4993794;28;20240;-75
2023/01/21 08:00:08;;;;;;;3.33;1.50;;;;;;;5.06;86.71;93967.78;5005941;28;20216;-76
2023/01/21 08:02:35;;;;;;;2.80;1.30;;;;;;;5.11;86.10;93961.50;4997814;28;20559;-76
2023/01/21 08:05:02;;;;;;;3.83;2.10;;;;;;;5.15;86.39;93967.84;4997698;28;20204;-75
2023/01/21 08:07:29;;;;;;;5.35;1.45;;;;;;;5.41;86.29;93949.16;4998863;28;20203;-76
2023/01/21 08:09:57;;;;;;;5.57;2.28;;;;;;;5.33;85.71;93958.75;4992332;28;20198;-76
2023/01/21 08:12:24;;;;;;;2.78;2.53;;;;;;;5.60;84.74;93980.00;4998027;28;20196;-75
2023/01/21 08:14:53;;;;;;;3.95;1.95;;;;;;;5.65;83.93;94003.25;4996152;28;20220;-76
2023/01/21 08:17:20;;;;;;;3.22;1.92;;;;;;;5.58;83.24;93989.50;4999555;28;20232;-75
2023/01/21 08:19:46;;;;;;;2.15;1.55;;;;;;;5.57;83.23;93986.00;4992286;28;20223;-74
2023/01/21 08:22:13;;;;;;;3.17;1.75;;;;;;;5.56;82.77;93984.44;5008162;28;20259;-75
2023/01/21 08:24:40;;;;;;;5.05;2.20;;;;;;;5.78;83.53;93978.16;5002763;28;20209;-77
2023/01/21 08:27:08;;;;;;;3.58;2.40;;;;;;;5.71;82.63;93983.19;5002646;28;20212;-77
2023/01/21 08:29:35;;;;;;;4.43;1.88;;;;;;;5.78;82.98;93980.03;5012177;28;20267;-78
2023/01/21 08:32:02;;;;;;;3.10;2.25;;;;;;;5.89;83.06;93987.53;4996210;28;20604;-79
2023/01/21 08:34:29;;;;;;;4.93;2.47;;;;;;;5.79;82.46;94001.22;5000034;28;20206;-78
2023/01/21 08:36:57;;;;;;;4.70;3.08;;;;;;;5.83;82.44;93998.72;5001898;28;20205;-78
2023/01/21 08:39:23;;;;;;;10.30;2.67;;;;;;;5.91;82.15;94000.66;5002672;28;20209;-76
2023/01/21 08:41:50;;;;;;;2.58;2.00;;;;;;;5.96;82.25;93989.75;4995343;28;20259;-79
2023/01/21 08:44:18;;;;;;;4.60;1.42;;;;;;;6.37;80.83;93998.19;5001039;28;20267;-76
2023/01/21 08:46:45;;;;;;;1.13;1.02;;;;;;;6.27;79.93;93998.50;5008929;28;20256;-81
2023/01/21 08:49:12;;;;;;;2.80;1.58;;;;;;;6.54;80.37;93985.84;5007245;28;20209;-77
2023/01/21 08:51:38;;;;;;;1.42;1.25;;;;;;;6.65;79.07;93982.50;5009352;28;20248;-77
2023/01/21 08:54:05;;;;;;;2.58;1.30;;;;;;;6.57;78.53;94004.00;5006595;28;20275;-78
2023/01/21 08:56:32;;;;;;;1.45;0.63;;;;;;;6.71;79.04;94004.63;5005070;28;20276;-80
2023/01/21 08:58:59;;;;;;;1.85;1.30;;;;;;;6.72;77.91;93988.19;5000303;28;20236;-78
2023/01/21 09:01:28;;;;;;;3.00;1.80;;;;;;;7.04;78.09;93988.75;5007806;28;20205;-79
2023/01/21 09:03:55;;;;;;;4.68;1.85;;;;;;;7.35;76.73;94000.09;4999585;28;20210;-77
2023/01/21 09:06:22;;;;;;;2.63;1.65;;;;;;;7.62;75.99;93993.47;4997991;28;20236;-83
2023/01/21 09:08:49;;;;;;;3.83;1.80;;;;;;;7.72;75.08;93987.72;5001069;28;20205;-77
2023/01/21 09:11:16;;;;;;;0.80;0.70;;;;;;;7.96;74.07;93975.50;5006307;28;20253;-78
2023/01/21 09:13:44;;;;;;;1.95;1.40;;;;;;;8.10;72.60;93993.03;4999559;28;20229;-83
2023/01/21 09:16:12;;;;;;;4.68;2.80;;;;;;;8.18;73.54;93986.03;4994803;28;20606;-79
2023/01/21 09:18:41;;;;;;;2.60;1.63;;;;;;;8.11;73.26;93985.72;5003611;28;20751;-76
2023/01/21 09:21:09;;;;;;;3.78;1.55;;;;;;;8.09;74.70;93975.28;4997548;28;20264;-82
2023/01/21 09:23:37;;;;;;;2.78;1.20;;;;;;;8.00;74.62;93979.16;5001726;28;20268;-79
2023/01/21 09:26:06;;;;;;;2.10;1.77;;;;;;;7.83;75.43;93974.63;5001776;28;20727;-78
2023/01/21 09:28:34;;;;;;;2.83;1.45;;;;;;;8.02;75.08;93975.00;5003474;28;20255;-80
2023/01/21 09:31:02;;;;;;;1.50;1.27;;;;;;;8.11;74.28;93974.94;4998718;28;20797;-80
2023/01/21 09:33:30;;;;;;;2.28;1.27;;;;;;;8.23;74.07;93968.81;5009618;28;20267;-78
2023/01/21 09:36:00;;;;;;;3.60;1.70;;;;;;;8.13;73.71;93954.63;5002943;28;20289;-77
2023/01/21 09:38:28;;;;;;;1.98;1.27;;;;;;;8.06;73.81;93953.56;5006512;28;20233;-76
2023/01/21 09:40:59;;;;;;;1.88;1.30;;;;;;;7.80;73.66;93959.91;5002614;28;20206;-79
2023/01/21 09:43:33;;;;;;;2.05;1.45;;;;;;;7.38;75.13;93960.94;5005952;28;20193;-75
2023/01/21 09:46:05;;;;;;;1.95;1.50;;;;;;;7.30;75.79;93948.28;4999788;28;20222;-76
2023/01/21 09:48:36;;;;;;;1.88;1.52;;;;;;;7.53;75.83;93949.59;5004729;28;20206;-78
2023/01/21 09:51:11;;;;;;;1.00;0.80;;;;;;;7.36;74.60;93957.78;5005453;28;20586;-77
2023/01/21 09:53:49;;;;;;;2.08;1.55;;;;;;;7.41;76.04;93947.59;5005477;28;20212;-79
2023/01/21 09:56:22;;;;;;;3.90;1.33;;;;;;;7.40;74.43;93953.28;5009155;28;20243;-77
2023/01/21 09:58:53;;;;;;;1.80;1.40;;;;;;;7.32;75.23;93929.88;4999621;28;20245;-78
2023/01/21 10:01:27;;;;;;;2.42;1.50;;;;;;;7.61;75.06;93938.00;5009440;28;20275;-76
2023/01/21 10:03:58;;;;;;;1.45;1.05;;;;;;;7.69;74.20;93936.34;4998062;28;20201;-75
2023/01/21 10:06:41;;;;;;;7.32;2.95;;;;;;;7.73;74.82;93930.00;5002787;28;20264;-79
2023/01/21 10:09:35;;;;;;;0.95;0.93;;;;;;;7.79;74.61;93931.34;5002507;28;20341;-77
2023/01/21 10:12:31;;;;;;;5.10;1.08;;;;;;;7.90;74.62;93925.59;4989660;28;20214;-77
2023/01/21 10:15:24;;;;;;;3.10;1.35;;;;;;;7.87;74.18;93912.78;4994710;28;20270;-76
2023/01/21 10:17:56;;;;;;;3.00;1.80;;;;;;;8.13;74.05;93922.25;4995236;28;20229;-78
2023/01/21 10:20:26;;;;;;;0.90;0.82;;;;;;;8.40;73.39;93912.84;4995633;28;20256;-77
2023/01/21 10:22:58;;;;;;;1.25;1.10;;;;;;;8.34;72.13;93918.78;4996768;28;20247;-77
2023/01/21 10:25:29;;;;;;;2.65;1.50;;;;;;;8.21;72.82;93917.91;4995302;28;20214;-77
2023/01/21 10:27:58;;;;;;;3.00;1.77;;;;;;;8.31;73.09;93917.53;4995219;28;20747;-77
2023/01/21 10:30:29;;;;;;;2.80;2.08;;;;;;;8.47;72.99;93915.78;5001286;28;20193;-77
2023/01/21 10:32:56;;;;;;;1.45;1.35;;;;;;;8.22;72.81;93919.47;4997768;28;20201;-77
2023/01/21 10:35:36;;;;;;;1.90;1.33;;;;;;;8.24;73.99;93928.03;4998819;28;20746;-77
2023/01/21 10:38:09;;;;;;;3.35;2.17;;;;;;;8.53;73.19;93929.88;4998396;28;20718;-78
2023/01/21 10:40:47;;;;;;;2.50;1.70;;;;;;;8.47;71.60;93915.03;4996255;28;20192;-76
2023/01/21 10:43:29;;;;;;;2.70;1.75;;;;;;;8.52;71.78;93907.50;4999791;28;20201;-78
2023/01/21 10:46:03;;;;;;;1.98;1.67;;;;;;;8.61;71.12;93904.72;5001205;28;20223;-76
2023/01/21 10:48:38;;;;;;;3.05;1.15;;;;;;;8.62;71.57;93900.88;5000772;28;20228;-76
2023/01/21 10:51:17;;;;;;;3.30;1.60;;;;;;;8.74;72.30;93898.25;5003609;28;20235;-78
2023/01/21 10:53:53;;;;;;;1.85;1.27;;;;;;;8.81;70.74;93913.91;5005560;28;20229;-77
2023/01/21 10:56:29;;;;;;;5.43;2.33;;;;;;;8.86;70.68;93902.88;5000873;28;20294;-77
2023/01/21 10:59:00;;;;;;;2.35;1.75;;;;;;;9.07;70.42;93906.28;4996600;28;20221;-76
2023/01/21 11:01:30;;;;;;;1.38;1.17;;;;;;;9.14;69.13;93898.44;4992438;28;20326;-78
2023/01/21 11:04:00;;;;;;;2.80;1.58;;;;;;;8.97;69.75;93889.75;4998362;28;20263;-78
2023/01/21 11:06:31;;;;;;;2.28;1.85;;;;;;;9.32;70.26;93876.59;5001609;28;20700;-79
2023/01/21 11:09:02;;;;;;;3.22;1.85;;;;;;;9.50;68.46;93886.06;4997455;28;20239;-78
2023/01/21 11:11:31;;;;;;;1.52;1.35;;;;;;;9.13;69.04;93869.06;4998086;28;20201;-79
2023/01/21 11:13:58;;;;;;;2.13;1.52;;;;;;;9.25;69.26;93880.66;4995610;28;20722;-78
2023/01/21 11:16:41;;;;;;;2.53;1.73;;;;;;;9.26;69.19;93859.81;4998824;28;20267;-78
2023/01/21 11:19:13;;;;;;;1.48;1.17;;;;;;;9.54;68.44;93876.16;4997839;28;20577;-78
2023/01/21 11:21:39;;;;;;;1.55;1.10;;;;;;;9.66;67.92;93878.06;4998895;28;20676;-79
2023/01/21 11:24:23;;;;;;;2.45;1.52;;;;;;;9.74;67.70;93890.66;5000922;28;20336;-77
2023/01/21 11:26:51;;;;;;;2.10;1.00;;;;;;;9.80;66.91;93879.28;4998458;28;20252;-78
2023/01/21 11:29:20;;;;;;;0.75;0.68;;;;;;;9.91;66.82;93888.50;4996982;28;20711;-78
2023/01/21 11:31:49;;;;;;;4.82;1.80;;;;;;;10.08;66.78;93878.53;5003334;28;20210;-78
2023/01/21 11:34:20;;;;;;;5.70;2.88;;;;;;;9.99;66.53;93886.78;4996461;28;20200;-77
2023/01/21 11:36:58;;;;;;;3.17;1.58;;;;;;;9.99;66.39;93881.38;4999408;28;20201;-77
2023/01/21 11:39:29;;;;;;;2.67;1.65;;;;;;;9.71;67.12;93885.91;4997494;28;20232;-79
2023/01/21 11:41:58;;;;;;;3.20;1.45;;;;;;;9.89;66.58;93858.28;5000374;28;20268;-79
2023/01/21 11:44:25;;;;;;;1.92;1.10;;;;;;;10.24;65.92;93871.31;5001931;28;20234;-79
2023/01/21 11:46:52;;;;;;;3.35;1.70;;;;;;;10.37;65.62;93870.13;5002149;28;20742;-77